Eurocargo Venezia — IBKS — position and weather

sailwx.info

Track history (hours):
 
Tides and Currents Weather Stations Pressure Air Temp Water Temp Dewpoint Dewpoint Depression Visibility Wind Speed Wind Dir Waves Ship Positions

Eurocargo Venezia

Last reported at 2016-Aug-28 05:33 UTC. Time now 2016-Aug-28 06:54 UTC.
Position N 38°59' E 015°13'.

Length 200 m; draft 7 m.

Type: Ship (hazmat cat D). MMSI: 247297200.

Date/timePositionNaut miles runAvg speedWind from/ knotsBaromVisibWave heightAir tempDewpointWater temp
2016-Aug-28 05:33N 38°59' E 015°13'1918.5
2016-Aug-28 04:33N 38°43' E 015°26'1919.0
2016-Aug-28 03:33N 38°27' E 015°36'1413.7
2016-Aug-28 02:33N 38°13' E 015°37'1817.7
2016-Aug-28 01:34N 37°56' E 015°29'1818.3
2016-Aug-28 00:33N 37°40' E 015°19'22 2.5
2016-Aug-27 15:29N 37°17' E 015°18'1819.1
2016-Aug-27 14:31N 36°60' E 015°25'1919.0
2016-Aug-27 13:32N 36°43' E 015°16'2019.1
2016-Aug-27 12:28N 36°26' E 015°01'1819.4
2016-Aug-27 11:33N 36°12' E 014°48'2019.4
2016-Aug-27 10:33N 35°56' E 014°34'4 3.9
2016-Aug-27 09:32N 35°53' E 014°31'0 0.0
2016-Aug-27 08:29N 35°53' E 014°31'0 0.0
2016-Aug-27 07:32N 35°53' E 014°31'0 0.0
2016-Aug-27 06:32N 35°53' E 014°31'0 0.0
2016-Aug-27 04:32N 35°53' E 014°31'0 0.0
2016-Aug-27 03:23N 35°53' E 014°31'0 0.0
2016-Aug-27 02:32N 35°53' E 014°31'1 1.1
2016-Aug-27 01:32N 35°54' E 014°31'1615.9
2016-Aug-27 00:32N 36°07' E 014°43'7718.2
2016-Aug-26 20:16N 37°20' E 015°16'1316.4
2016-Aug-26 19:28N 37°29' E 015°06'0 0.0
2016-Aug-26 18:31N 37°29' E 015°06'0 0.0
2016-Aug-26 17:25N 37°29' E 015°06'0 0.0
2016-Aug-26 16:25N 37°29' E 015°06'0 0.0
2016-Aug-26 15:31N 37°29' E 015°06'0 0.0
2016-Aug-26 14:25N 37°29' E 015°06'0 0.0
2016-Aug-26 13:13N 37°29' E 015°06'13 8.0
2016-Aug-26 11:33N 37°38' E 015°18'2020.1
2016-Aug-26 10:34N 37°57' E 015°28'1918.6
2016-Aug-26 09:33N 38°14' E 015°36'1414.3
2016-Aug-26 08:33N 38°28' E 015°34'2120.3
2016-Aug-26 07:33N 38°47' E 015°23'2020.0
2016-Aug-26 06:33N 39°03' E 015°09'27719.3
2016-Aug-25 16:12N 42°24' E 010°58'1218.6
2016-Aug-25 15:33N 42°33' E 010°48'1918.9
2016-Aug-25 14:33N 42°49' E 010°33'1918.8
2016-Aug-25 13:33N 43°06' E 010°21'2020.2
2016-Aug-25 12:33N 43°25' E 010°13'1010.2
2016-Aug-25 11:34N 43°34' E 010°19'1 0.6
2016-Aug-25 10:33N 43°35' E 010°19'0 0.0
2016-Aug-25 09:33N 43°35' E 010°19'0 0.0
2016-Aug-25 08:34N 43°35' E 010°19'0 0.0
2016-Aug-25 07:33N 43°35' E 010°19'0 0.0
2016-Aug-25 06:34N 43°35' E 010°19'0 0.0
2016-Aug-25 04:33N 43°35' E 010°19'2 1.8
2016-Aug-25 03:34N 43°33' E 010°18'8 7.6
2016-Aug-25 02:34N 43°29' E 010°09'1313.4
2016-Aug-25 01:33N 43°34' E 009°52'1818.4
2016-Aug-25 00:33N 43°48' E 009°35'1818.1
2016-Aug-24 23:33N 44°02' E 009°19'1818.4
2016-Aug-24 22:33N 44°16' E 009°03'1110.3
2016-Aug-24 21:32N 44°24' E 008°53'0 0.0
2016-Aug-24 20:32N 44°24' E 008°53'0 0.0
2016-Aug-24 19:32N 44°24' E 008°53'0 0.0
2016-Aug-24 18:32N 44°24' E 008°53'0 0.0
2016-Aug-24 17:32N 44°24' E 008°53'0 0.0
2016-Aug-24 16:23N 44°24' E 008°53'0 0.0
2016-Aug-24 15:32N 44°24' E 008°53'0 0.0
2016-Aug-24 14:32N 44°24' E 008°53'0 0.0
2016-Aug-24 13:26N 44°24' E 008°53'0 0.0
2016-Aug-24 12:29N 44°24' E 008°53'0 0.0
2016-Aug-24 11:29N 44°24' E 008°53'0 0.0
2016-Aug-24 10:32N 44°24' E 008°53'2 2.4
2016-Aug-24 09:34N 44°23' E 008°56'1616.3
2016-Aug-24 08:33N 44°11' E 009°10'2020.2
2016-Aug-24 07:34N 43°55' E 009°28'2019.5
2016-Aug-24 06:34N 43°40' E 009°45'3818.9
2016-Aug-24 04:33N 43°09' E 010°16'32719.2
2016-Aug-23 11:31N 39°07' E 015°07'1919.6
2016-Aug-23 10:34N 38°52' E 015°21'1919.3
2016-Aug-23 09:34N 38°34' E 015°32'1918.9
2016-Aug-23 08:33N 38°18' E 015°44'1514.7
2016-Aug-23 07:34N 38°05' E 015°35'2019.8
2016-Aug-23 06:33N 37°47' E 015°24'71 5.8
2016-Aug-22 18:26N 36°38' E 015°11'1820.0
2016-Aug-22 17:33N 36°23' E 014°58'2020.1
2016-Aug-22 16:33N 36°07' E 014°44'1717.4
2016-Aug-22 15:33N 35°53' E 014°31'0 0.1
2016-Aug-22 13:26N 35°53' E 014°31'0 0.0
2016-Aug-22 12:32N 35°53' E 014°31'0 0.0
2016-Aug-22 11:32N 35°53' E 014°31'0 0.0
2016-Aug-22 10:26N 35°53' E 014°31'0 0.0
2016-Aug-22 09:32N 35°53' E 014°31'0 0.0
2016-Aug-22 08:17N 35°53' E 014°31'0 0.2
2016-Aug-22 07:34N 35°53' E 014°31'1010.0
2016-Aug-22 06:34N 36°01' E 014°38'1717.2
2016-Aug-22 05:34N 36°15' E 014°50'1818.1
2016-Aug-22 04:33N 36°30' E 015°04'1919.2
2016-Aug-22 03:33N 36°46' E 015°17'1818.4
2016-Aug-22 02:33N 37°03' E 015°25'2319.4
2016-Aug-22 01:20N 37°24' E 015°12'7 1.6
2016-Aug-21 21:13N 37°29' E 015°06'5 7.6
2016-Aug-21 20:33N 37°31' E 015°12'2020.6
2016-Aug-21 19:33N 37°50' E 015°23'2020.2
2016-Aug-21 18:33N 38°08' E 015°34'1414.5
2016-Aug-21 17:33N 38°22' E 015°36'1919.0
2016-Aug-21 16:33N 38°35' E 015°18'1918.9
2016-Aug-21 15:34N 38°49' E 015°02'1918.9
2016-Aug-21 14:32N 39°03' E 014°45'4519.0
2016-Aug-21 12:11N 39°35' E 014°05'1218.5
2016-Aug-21 11:33N 39°44' E 013°54'1818.4
2016-Aug-21 10:33N 39°57' E 013°37'1918.9
2016-Aug-21 09:33N 40°10' E 013°20'1918.8
2016-Aug-21 08:33N 40°24' E 013°03'8218.9
2016-Aug-21 04:11N 41°23' E 011°46'5718.7
2016-Aug-21 01:08N 42°05' E 010°54'1118.6
2016-Aug-21 00:33N 42°12' E 010°44'2118.8
2016-Aug-20 23:26N 42°27' E 010°24'1719.0
2016-Aug-20 22:33N 42°39' E 010°08'1717.5
2016-Aug-20 21:33N 42°56' E 009°60'1918.6
2016-Aug-20 20:33N 43°13' E 009°52'1919.2
2016-Aug-20 19:33N 43°30' E 009°39'1919.1
2016-Aug-20 18:33N 43°46' E 009°25'2019.7
2016-Aug-20 17:33N 44°03' E 009°11'2019.7
2016-Aug-20 16:33N 44°21' E 008°58'5 4.8
2016-Aug-20 15:32N 44°24' E 008°53'0 0.0
2016-Aug-20 14:32N 44°24' E 008°53'0 0.0
2016-Aug-20 13:32N 44°24' E 008°53'0 0.0
2016-Aug-20 12:32N 44°24' E 008°53'0 0.0
2016-Aug-20 11:23N 44°24' E 008°53'0 0.0
2016-Aug-20 10:32N 44°24' E 008°53'0 0.0
2016-Aug-20 09:32N 44°24' E 008°53'0 0.0
2016-Aug-20 08:32N 44°24' E 008°53'0 0.0
2016-Aug-20 07:32N 44°24' E 008°53'0 0.0
2016-Aug-20 06:32N 44°24' E 008°53'0 0.0
2016-Aug-20 05:32N 44°24' E 008°53'0 0.0
2016-Aug-20 04:32N 44°24' E 008°53'0 0.0
2016-Aug-20 03:32N 44°24' E 008°53'0 0.0
2016-Aug-20 02:32N 44°24' E 008°53'0 0.0
2016-Aug-20 01:32N 44°24' E 008°53'0 0.0
2016-Aug-20 00:32N 44°24' E 008°53'1 0.5
2016-Aug-19 23:33N 44°24' E 008°54'1212.0
2016-Aug-19 22:33N 44°16' E 009°06'9 9.3
2016-Aug-19 21:34N 44°16' E 008°53'4 4.3
2016-Aug-19 20:34N 44°18' E 008°48'1 1.3
2016-Aug-19 19:34N 44°18' E 008°49'1 1.0
2016-Aug-19 18:34N 44°17' E 008°50'8 7.8
2016-Aug-19 17:33N 44°24' E 008°55'0 0.1
2016-Aug-19 16:32N 44°24' E 008°55'0 0.0
2016-Aug-19 15:32N 44°24' E 008°55'0 0.0
2016-Aug-19 14:32N 44°24' E 008°55'0 0.0
2016-Aug-19 13:23N 44°24' E 008°55'0 0.0
2016-Aug-19 12:29N 44°24' E 008°55'0 0.0
2016-Aug-19 11:29N 44°24' E 008°55'0 0.0
2016-Aug-19 10:29N 44°24' E 008°55'0 0.0
2016-Aug-19 09:29N 44°24' E 008°55'0 0.0
2016-Aug-19 08:32N 44°24' E 008°55'0 0.0
2016-Aug-19 07:29N 44°24' E 008°55'0 0.0
2016-Aug-19 06:32N 44°24' E 008°55'0 0.0
2016-Aug-19 05:32N 44°24' E 008°55'0 0.0
2016-Aug-19 04:32N 44°24' E 008°55'0 0.0
2016-Aug-19 03:32N 44°24' E 008°55'0 0.0
2016-Aug-19 02:32N 44°24' E 008°55'0 0.0
2016-Aug-19 01:32N 44°24' E 008°55'0 0.0
2016-Aug-19 00:32N 44°24' E 008°55'0 0.0
2016-Aug-18 23:20N 44°24' E 008°55'0 0.0
2016-Aug-18 22:23N 44°24' E 008°55'0 0.0
2016-Aug-18 21:23N 44°24' E 008°55'0 0.0
2016-Aug-18 20:26N 44°24' E 008°55'0 0.0
2016-Aug-18 19:26N 44°24' E 008°55'0 0.0
2016-Aug-18 18:32N 44°24' E 008°55'0 0.0
2016-Aug-18 17:14N 44°24' E 008°55'0 0.0
2016-Aug-18 16:26N 44°24' E 008°55'0 0.0
2016-Aug-18 15:32N 44°24' E 008°55'0 0.0
2016-Aug-18 14:29N 44°24' E 008°55'0 0.0
2016-Aug-18 13:32N 44°24' E 008°55'0 0.0
2016-Aug-18 12:32N 44°24' E 008°55'0 0.0
2016-Aug-18 11:32N 44°24' E 008°55'0 0.0
2016-Aug-18 10:32N 44°24' E 008°55'0 0.0
2016-Aug-18 09:32N 44°24' E 008°55'0 0.0
2016-Aug-18 08:23N 44°24' E 008°55'0 0.0
2016-Aug-18 07:32N 44°24' E 008°55'0 0.0
2016-Aug-18 06:29N 44°24' E 008°55'  
Track history (hours):
 
Tides and Currents Weather Stations Pressure Air Temp Water Temp Dewpoint Dewpoint Depression Visibility Wind Speed Wind Dir Waves Ship Positions

Eurocargo Venezia

Last reported at 2016-Aug-28 05:33 UTC. Time now 2016-Aug-28 06:54 UTC.
Position N 38°59' E 015°13'.

Length 200 m; draft 7 m.

Type: Ship (hazmat cat D). MMSI: 247297200.

Date/timePositionNaut miles runAvg speedWind from/ knotsBaromVisibWave heightAir tempDewpointWater temp
2016-Aug-28 05:33N 38°59' E 015°13'1918.5
2016-Aug-28 04:33N 38°43' E 015°26'1919.0
2016-Aug-28 03:33N 38°27' E 015°36'1413.7
2016-Aug-28 02:33N 38°13' E 015°37'1817.7
2016-Aug-28 01:34N 37°56' E 015°29'1818.3
2016-Aug-28 00:33N 37°40' E 015°19'22 2.5
2016-Aug-27 15:29N 37°17' E 015°18'1819.1
2016-Aug-27 14:31N 36°60' E 015°25'1919.0
2016-Aug-27 13:32N 36°43' E 015°16'2019.1
2016-Aug-27 12:28N 36°26' E 015°01'1819.4
2016-Aug-27 11:33N 36°12' E 014°48'2019.4
2016-Aug-27 10:33N 35°56' E 014°34'4 3.9
2016-Aug-27 09:32N 35°53' E 014°31'0 0.0
2016-Aug-27 08:29N 35°53' E 014°31'0 0.0
2016-Aug-27 07:32N 35°53' E 014°31'0 0.0
2016-Aug-27 06:32N 35°53' E 014°31'0 0.0
2016-Aug-27 04:32N 35°53' E 014°31'0 0.0
2016-Aug-27 03:23N 35°53' E 014°31'0 0.0
2016-Aug-27 02:32N 35°53' E 014°31'1 1.1
2016-Aug-27 01:32N 35°54' E 014°31'1615.9
2016-Aug-27 00:32N 36°07' E 014°43'7718.2
2016-Aug-26 20:16N 37°20' E 015°16'1316.4
2016-Aug-26 19:28N 37°29' E 015°06'0 0.0
2016-Aug-26 18:31N 37°29' E 015°06'0 0.0
2016-Aug-26 17:25N 37°29' E 015°06'0 0.0
2016-Aug-26 16:25N 37°29' E 015°06'0 0.0
2016-Aug-26 15:31N 37°29' E 015°06'0 0.0
2016-Aug-26 14:25N 37°29' E 015°06'0 0.0
2016-Aug-26 13:13N 37°29' E 015°06'13 8.0
2016-Aug-26 11:33N 37°38' E 015°18'2020.1
2016-Aug-26 10:34N 37°57' E 015°28'1918.6
2016-Aug-26 09:33N 38°14' E 015°36'1414.3
2016-Aug-26 08:33N 38°28' E 015°34'2120.3
2016-Aug-26 07:33N 38°47' E 015°23'2020.0
2016-Aug-26 06:33N 39°03' E 015°09'27719.3
2016-Aug-25 16:12N 42°24' E 010°58'1218.6
2016-Aug-25 15:33N 42°33' E 010°48'1918.9
2016-Aug-25 14:33N 42°49' E 010°33'1918.8
2016-Aug-25 13:33N 43°06' E 010°21'2020.2
2016-Aug-25 12:33N 43°25' E 010°13'1010.2
2016-Aug-25 11:34N 43°34' E 010°19'1 0.6
2016-Aug-25 10:33N 43°35' E 010°19'0 0.0
2016-Aug-25 09:33N 43°35' E 010°19'0 0.0
2016-Aug-25 08:34N 43°35' E 010°19'0 0.0
2016-Aug-25 07:33N 43°35' E 010°19'0 0.0
2016-Aug-25 06:34N 43°35' E 010°19'0 0.0
2016-Aug-25 04:33N 43°35' E 010°19'2 1.8
2016-Aug-25 03:34N 43°33' E 010°18'8 7.6
2016-Aug-25 02:34N 43°29' E 010°09'1313.4
2016-Aug-25 01:33N 43°34' E 009°52'1818.4
2016-Aug-25 00:33N 43°48' E 009°35'1818.1
2016-Aug-24 23:33N 44°02' E 009°19'1818.4
2016-Aug-24 22:33N 44°16' E 009°03'1110.3
2016-Aug-24 21:32N 44°24' E 008°53'0 0.0
2016-Aug-24 20:32N 44°24' E 008°53'0 0.0
2016-Aug-24 19:32N 44°24' E 008°53'0 0.0
2016-Aug-24 18:32N 44°24' E 008°53'0 0.0
2016-Aug-24 17:32N 44°24' E 008°53'0 0.0
2016-Aug-24 16:23N 44°24' E 008°53'0 0.0
2016-Aug-24 15:32N 44°24' E 008°53'0 0.0
2016-Aug-24 14:32N 44°24' E 008°53'0 0.0
2016-Aug-24 13:26N 44°24' E 008°53'0 0.0
2016-Aug-24 12:29N 44°24' E 008°53'0 0.0
2016-Aug-24 11:29N 44°24' E 008°53'0 0.0
2016-Aug-24 10:32N 44°24' E 008°53'2 2.4
2016-Aug-24 09:34N 44°23' E 008°56'1616.3
2016-Aug-24 08:33N 44°11' E 009°10'2020.2
2016-Aug-24 07:34N 43°55' E 009°28'2019.5
2016-Aug-24 06:34N 43°40' E 009°45'3818.9
2016-Aug-24 04:33N 43°09' E 010°16'32719.2
2016-Aug-23 11:31N 39°07' E 015°07'1919.6
2016-Aug-23 10:34N 38°52' E 015°21'1919.3
2016-Aug-23 09:34N 38°34' E 015°32'1918.9
2016-Aug-23 08:33N 38°18' E 015°44'1514.7
2016-Aug-23 07:34N 38°05' E 015°35'2019.8
2016-Aug-23 06:33N 37°47' E 015°24'71 5.8
2016-Aug-22 18:26N 36°38' E 015°11'1820.0
2016-Aug-22 17:33N 36°23' E 014°58'2020.1
2016-Aug-22 16:33N 36°07' E 014°44'1717.4
2016-Aug-22 15:33N 35°53' E 014°31'0 0.1
2016-Aug-22 13:26N 35°53' E 014°31'0 0.0
2016-Aug-22 12:32N 35°53' E 014°31'0 0.0
2016-Aug-22 11:32N 35°53' E 014°31'0 0.0
2016-Aug-22 10:26N 35°53' E 014°31'0 0.0
2016-Aug-22 09:32N 35°53' E 014°31'0 0.0
2016-Aug-22 08:17N 35°53' E 014°31'0 0.2
2016-Aug-22 07:34N 35°53' E 014°31'1010.0
2016-Aug-22 06:34N 36°01' E 014°38'1717.2
2016-Aug-22 05:34N 36°15' E 014°50'1818.1
2016-Aug-22 04:33N 36°30' E 015°04'1919.2
2016-Aug-22 03:33N 36°46' E 015°17'1818.4
2016-Aug-22 02:33N 37°03' E 015°25'2319.4
2016-Aug-22 01:20N 37°24' E 015°12'7 1.6
2016-Aug-21 21:13N 37°29' E 015°06'5 7.6
2016-Aug-21 20:33N 37°31' E 015°12'2020.6
2016-Aug-21 19:33N 37°50' E 015°23'2020.2
2016-Aug-21 18:33N 38°08' E 015°34'1414.5
2016-Aug-21 17:33N 38°22' E 015°36'1919.0
2016-Aug-21 16:33N 38°35' E 015°18'1918.9
2016-Aug-21 15:34N 38°49' E 015°02'1918.9
2016-Aug-21 14:32N 39°03' E 014°45'4519.0
2016-Aug-21 12:11N 39°35' E 014°05'1218.5
2016-Aug-21 11:33N 39°44' E 013°54'1818.4
2016-Aug-21 10:33N 39°57' E 013°37'1918.9
2016-Aug-21 09:33N 40°10' E 013°20'1918.8
2016-Aug-21 08:33N 40°24' E 013°03'8218.9
2016-Aug-21 04:11N 41°23' E 011°46'5718.7
2016-Aug-21 01:08N 42°05' E 010°54'1118.6
2016-Aug-21 00:33N 42°12' E 010°44'2118.8
2016-Aug-20 23:26N 42°27' E 010°24'1719.0
2016-Aug-20 22:33N 42°39' E 010°08'1717.5
2016-Aug-20 21:33N 42°56' E 009°60'1918.6
2016-Aug-20 20:33N 43°13' E 009°52'1919.2
2016-Aug-20 19:33N 43°30' E 009°39'1919.1
2016-Aug-20 18:33N 43°46' E 009°25'2019.7
2016-Aug-20 17:33N 44°03' E 009°11'2019.7
2016-Aug-20 16:33N 44°21' E 008°58'5 4.8
2016-Aug-20 15:32N 44°24' E 008°53'0 0.0
2016-Aug-20 14:32N 44°24' E 008°53'0 0.0
2016-Aug-20 13:32N 44°24' E 008°53'0 0.0
2016-Aug-20 12:32N 44°24' E 008°53'0 0.0
2016-Aug-20 11:23N 44°24' E 008°53'0 0.0
2016-Aug-20 10:32N 44°24' E 008°53'0 0.0
2016-Aug-20 09:32N 44°24' E 008°53'0 0.0
2016-Aug-20 08:32N 44°24' E 008°53'0 0.0
2016-Aug-20 07:32N 44°24' E 008°53'0 0.0
2016-Aug-20 06:32N 44°24' E 008°53'0 0.0
2016-Aug-20 05:32N 44°24' E 008°53'0 0.0
2016-Aug-20 04:32N 44°24' E 008°53'0 0.0
2016-Aug-20 03:32N 44°24' E 008°53'0 0.0
2016-Aug-20 02:32N 44°24' E 008°53'0 0.0
2016-Aug-20 01:32N 44°24' E 008°53'0 0.0
2016-Aug-20 00:32N 44°24' E 008°53'1 0.5
2016-Aug-19 23:33N 44°24' E 008°54'1212.0
2016-Aug-19 22:33N 44°16' E 009°06'9 9.3
2016-Aug-19 21:34N 44°16' E 008°53'4 4.3
2016-Aug-19 20:34N 44°18' E 008°48'1 1.3
2016-Aug-19 19:34N 44°18' E 008°49'1 1.0
2016-Aug-19 18:34N 44°17' E 008°50'8 7.8
2016-Aug-19 17:33N 44°24' E 008°55'0 0.1
2016-Aug-19 16:32N 44°24' E 008°55'0 0.0
2016-Aug-19 15:32N 44°24' E 008°55'0 0.0
2016-Aug-19 14:32N 44°24' E 008°55'0 0.0
2016-Aug-19 13:23N 44°24' E 008°55'0 0.0
2016-Aug-19 12:29N 44°24' E 008°55'0 0.0
2016-Aug-19 11:29N 44°24' E 008°55'0 0.0
2016-Aug-19 10:29N 44°24' E 008°55'0 0.0
2016-Aug-19 09:29N 44°24' E 008°55'0 0.0
2016-Aug-19 08:32N 44°24' E 008°55'0 0.0
2016-Aug-19 07:29N 44°24' E 008°55'0 0.0
2016-Aug-19 06:32N 44°24' E 008°55'0 0.0
2016-Aug-19 05:32N 44°24' E 008°55'0 0.0
2016-Aug-19 04:32N 44°24' E 008°55'0 0.0
2016-Aug-19 03:32N 44°24' E 008°55'0 0.0
2016-Aug-19 02:32N 44°24' E 008°55'0 0.0
2016-Aug-19 01:32N 44°24' E 008°55'0 0.0
2016-Aug-19 00:32N 44°24' E 008°55'0 0.0
2016-Aug-18 23:20N 44°24' E 008°55'0 0.0
2016-Aug-18 22:23N 44°24' E 008°55'0 0.0
2016-Aug-18 21:23N 44°24' E 008°55'0 0.0
2016-Aug-18 20:26N 44°24' E 008°55'0 0.0
2016-Aug-18 19:26N 44°24' E 008°55'0 0.0
2016-Aug-18 18:32N 44°24' E 008°55'0 0.0
2016-Aug-18 17:14N 44°24' E 008°55'0 0.0
2016-Aug-18 16:26N 44°24' E 008°55'0 0.0
2016-Aug-18 15:32N 44°24' E 008°55'0 0.0
2016-Aug-18 14:29N 44°24' E 008°55'0 0.0
2016-Aug-18 13:32N 44°24' E 008°55'0 0.0
2016-Aug-18 12:32N 44°24' E 008°55'0 0.0
2016-Aug-18 11:32N 44°24' E 008°55'0 0.0
2016-Aug-18 10:32N 44°24' E 008°55'0 0.0
2016-Aug-18 09:32N 44°24' E 008°55'0 0.0
2016-Aug-18 08:23N 44°24' E 008°55'0 0.0
2016-Aug-18 07:32N 44°24' E 008°55'0 0.0
2016-Aug-18 06:29N 44°24' E 008°55'  

Dump ship's entire track history